Time;durP1;ratioP1;P1;durP2;ratioP2;P2;SDS_P1;SDS_P2;PMS_P1;PMS_P2;Temp;Humidity;BMP_temperature;BMP_pressure;BME280_temperature;BME280_humidity;BME280_pressure;Samples;Min_cycle;Max_cycle;Signal;HPM_P1;HPM_P2
2022/11/25 00:01:15;;;;;;;;;;;;;;;;;;5012198;28;2070;-44
2022/11/25 00:03:42;;;;;;;;;;;;;;;;;;5011925;28;1745;-46
2022/11/25 00:06:14;;;;;;;;;;;;;;;;;;5011871;28;2161;-46
2022/11/25 00:08:42;;;;;;;;;;;;;;;;;;5011574;28;1827;-45
2022/11/25 00:11:09;;;;;;;;;;;;;;;;;;5011274;28;2096;-48
2022/11/25 00:13:36;;;;;;;;;;;;;;;;;;5011820;28;2034;-46
2022/11/25 00:16:05;;;;;;;;;;;;;;;;;;5015039;28;2102;-44
2022/11/25 00:18:32;;;;;;;;;;;;;;;;;;5005985;28;2041;-48
2022/11/25 00:21:03;;;;;;;;;;;;;;;;;;5010719;28;1824;-46
2022/11/25 00:23:31;;;;;;;;;;;;;;;;;;4995430;28;2058;-45
2022/11/25 00:26:08;;;;;;;;;;;;;;;;;;4995956;28;1813;-48
2022/11/25 00:28:36;;;;;;;;;;;;;;;;;;4995931;28;2052;-47
2022/11/25 00:31:22;;;;;;;;;;;;;;;;;;4995874;28;2061;-46
2022/11/25 00:33:50;;;;;;;;;;;;;;;;;;4995593;28;1860;-47
2022/11/25 00:36:22;;;;;;;;;;;;;;;;;;4995675;28;1995;-46
2022/11/25 00:38:56;;;;;;;;;;;;;;;;;;4995416;28;2046;-47
2022/11/25 00:46:55;;;;;;;;;;;;;;;;;;4995514;28;1931;-45
2022/11/25 00:49:23;;;;;;;;;;;;;;;;;;4995354;28;1683;-44
2022/11/25 00:51:50;;;;;;;;;;;;;;;;;;4995102;28;1934;-46
2022/11/25 00:54:17;;;;;;;;;;;;;;;;;;4995272;28;1962;-43
2022/11/25 00:56:44;;;;;;;;;;;;;;;;;;4995407;28;2007;-47
2022/11/25 00:59:12;;;;;;;;;;;;;;;;;;5009960;28;1918;-45
2022/11/25 01:01:39;;;;;;;;;;;;;;;;;;4995149;28;1971;-48
2022/11/25 01:04:06;;;;;;;;;;;;;;;;;;4995252;28;2008;-46
2022/11/25 01:06:34;;;;;;;;;;;;;;;;;;4994994;28;1955;-44
2022/11/25 01:09:01;;;;;;;;;;;;;;;;;;4995253;28;1430;-42
2022/11/25 01:11:28;;;;;;;;;;;;;;;;;;5010046;28;1973;-44
2022/11/25 01:13:57;;;;;;;;;;;;;;;;;;4995166;28;2015;-43
2022/11/25 01:16:27;;;;;;;;;;;;;;;;;;4994986;28;2058;-49
2022/11/25 01:18:55;;;;;;;;;;;;;;;;;;5007343;28;2067;-47
2022/11/25 01:21:26;;;;;;;;;;;;;;;;;;5014534;28;1778;-45
2022/11/25 01:23:53;;;;;;;;;;;;;;;;;;5013946;28;1822;-48
2022/11/25 01:26:22;;;;;;;;;;;;;;;;;;5028558;28;1554;-46
2022/11/25 01:28:53;;;;;;;;;;;;;;;;;;4994802;28;2091;-46
2022/11/25 01:31:22;;;;;;;;;;;;;;;;;;4994642;28;2018;-43
2022/11/25 01:33:56;;;;;;;;;;;;;;;;;;4994651;28;2129;-44
2022/11/25 01:36:24;;;;;;;;;;;;;;;;;;4994371;28;2024;-45
2022/11/25 01:38:52;;;;;;;;;;;;;;;;;;4994319;28;2093;-42
2022/11/25 01:41:20;;;;;;;;;;;;;;;;;;4994611;28;1927;-46
2022/11/25 01:44:06;;;;;;;;;;;;;;;;;;4994835;28;1873;-45
2022/11/25 01:46:36;;;;;;;;;;;;;;;;;;5009167;28;2030;-48
2022/11/25 01:49:06;;;;;;;;;;;;;;;;;;4994548;28;2042;-45
2022/11/25 01:51:39;;;;;;;;;;;;;;;;;;4994232;28;2023;-47
2022/11/25 01:54:08;;;;;;;;;;;;;;;;;;5009319;28;2454;-46
2022/11/25 01:56:39;;;;;;;;;;;;;;;;;;4994504;28;1918;-50
2022/11/25 01:59:06;;;;;;;;;;;;;;;;;;5008634;28;1980;-44
2022/11/25 02:01:34;;;;;;;;;;;;;;;;;;5009165;28;1978;-47
2022/11/25 02:04:02;;;;;;;;;;;;;;;;;;5009215;28;2009;-44
2022/11/25 02:06:39;;;;;;;;;;;;;;;;;;4993931;28;1957;-47
2022/11/25 02:09:08;;;;;;;;;;;;;;;;;;4994314;28;1839;-46
2022/11/25 02:11:39;;;;;;;;;;;;;;;;;;5008769;28;2124;-46
2022/11/25 02:14:07;;;;;;;;;;;;;;;;;;5008894;28;2120;-46
2022/11/25 02:16:34;;;;;;;;;;;;;;;;;;4993898;28;1928;-46
2022/11/25 02:19:02;;;;;;;;;;;;;;;;;;5006995;28;2502;-45
2022/11/25 02:21:36;;;;;;;;;;;;;;;;;;5013150;28;1966;-46
2022/11/25 02:24:09;;;;;;;;;;;;;;;;;;5012960;28;2536;-46
2022/11/25 02:26:37;;;;;;;;;;;;;;;;;;5012954;28;2013;-43
2022/11/25 02:29:06;;;;;;;;;;;;;;;;;;5028465;28;1835;-46
2022/11/25 02:31:33;;;;;;;;;;;;;;;;;;5013109;28;1912;-46
2022/11/25 02:34:01;;;;;;;;;;;;;;;;;;5013229;28;1922;-50
2022/11/25 02:36:28;;;;;;;;;;;;;;;;;;5028127;28;1845;-47
2022/11/25 02:38:56;;;;;;;;;;;;;;;;;;5028087;28;2532;-47
2022/11/25 02:41:38;;;;;;;;;;;;;;;;;;5028209;28;2191;-49
2022/11/25 02:44:06;;;;;;;;;;;;;;;;;;5028151;28;2046;-46
2022/11/25 02:46:34;;;;;;;;;;;;;;;;;;5028136;28;1941;-47
2022/11/25 02:49:01;;;;;;;;;;;;;;;;;;5012820;28;1988;-47
2022/11/25 02:51:38;;;;;;;;;;;;;;;;;;5028107;28;1966;-46
2022/11/25 02:54:07;;;;;;;;;;;;;;;;;;5027993;28;2320;-42
2022/11/25 02:56:35;;;;;;;;;;;;;;;;;;5027851;28;1951;-48
2022/11/25 02:59:02;;;;;;;;;;;;;;;;;;5012535;28;2038;-47
2022/11/25 03:01:31;;;;;;;;;;;;;;;;;;5027527;28;2004;-44
2022/11/25 03:03:58;;;;;;;;;;;;;;;;;;5012515;28;2001;-46
2022/11/25 03:06:26;;;;;;;;;;;;;;;;;;5027411;28;1880;-43
2022/11/25 03:08:53;;;;;;;;;;;;;;;;;;5011425;28;2010;-46
2022/11/25 03:12:17;;;;;;;;;;;;;;;;;;5012358;28;2104;-47
2022/11/25 03:14:08;;;;;;;;;;;;;;;;;;5027312;28;1942;-45
2022/11/25 03:16:35;;;;;;;;;;;;;;;;;;5027421;28;1955;-48
2022/11/25 03:19:03;;;;;;;;;;;;;;;;;;5013701;28;2123;-47
2022/11/25 03:21:30;;;;;;;;;;;;;;;;;;4992740;28;2057;-44
2022/11/25 03:23:58;;;;;;;;;;;;;;;;;;4992438;28;1978;-46
2022/11/25 03:26:25;;;;;;;;;;;;;;;;;;4992875;28;2151;-47
2022/11/25 03:28:52;;;;;;;;;;;;;;;;;;4992630;28;1998;-47
2022/11/25 03:31:19;;;;;;;;;;;;;;;;;;4992443;28;2035;-46
2022/11/25 03:33:46;;;;;;;;;;;;;;;;;;4992611;28;2066;-46
2022/11/25 03:36:14;;;;;;;;;;;;;;;;;;4991219;28;1910;-48
2022/11/25 03:38:41;;;;;;;;;;;;;;;;;;5007471;28;2149;-46
2022/11/25 03:41:08;;;;;;;;;;;;;;;;;;5007185;28;1920;-47
2022/11/25 03:43:35;;;;;;;;;;;;;;;;;;4992253;28;2065;-45
2022/11/25 03:46:02;;;;;;;;;;;;;;;;;;5007345;28;2268;-47
2022/11/25 03:48:29;;;;;;;;;;;;;;;;;;5007438;28;1996;-45
2022/11/25 03:50:56;;;;;;;;;;;;;;;;;;4992053;28;2001;-46
2022/11/25 03:53:26;;;;;;;;;;;;;;;;;;5007179;28;2100;-47
2022/11/25 03:55:52;;;;;;;;;;;;;;;;;;4992086;28;1970;-46
2022/11/25 03:58:23;;;;;;;;;;;;;;;;;;5007183;28;2029;-46
2022/11/25 04:00:50;;;;;;;;;;;;;;;;;;5006934;28;2114;-45
2022/11/25 04:03:17;;;;;;;;;;;;;;;;;;5006880;28;1970;-49
2022/11/25 04:05:45;;;;;;;;;;;;;;;;;;4992196;28;1838;-45
2022/11/25 04:08:12;;;;;;;;;;;;;;;;;;4991535;28;2003;-46
2022/11/25 04:10:40;;;;;;;;;;;;;;;;;;5007054;28;2164;-49
2022/11/25 04:13:09;;;;;;;;;;;;;;;;;;5006892;28;2037;-47
2022/11/25 04:15:47;;;;;;;;;;;;;;;;;;4992106;28;2040;-48
2022/11/25 04:18:16;;;;;;;;;;;;;;;;;;5013926;28;2138;-47
2022/11/25 04:20:43;;;;;;;;;;;;;;;;;;5011390;28;1984;-46
2022/11/25 04:23:11;;;;;;;;;;;;;;;;;;5011262;28;1978;-48
2022/11/25 04:25:44;;;;;;;;;;;;;;;;;;5004008;28;2094;-44
2022/11/25 04:28:18;;;;;;;;;;;;;;;;;;5007008;28;2011;-49
2022/11/25 04:30:46;;;;;;;;;;;;;;;;;;5006885;28;2452;-46
2022/11/25 04:33:13;;;;;;;;;;;;;;;;;;5006989;28;1939;-46
2022/11/25 04:35:41;;;;;;;;;;;;;;;;;;5006614;28;1785;-47
2022/11/25 04:38:10;;;;;;;;;;;;;;;;;;5006593;28;2138;-50
2022/11/25 04:40:37;;;;;;;;;;;;;;;;;;4991768;28;1916;-50
2022/11/25 04:43:20;;;;;;;;;;;;;;;;;;5006406;28;1955;-47
2022/11/25 04:45:54;;;;;;;;;;;;;;;;;;5006631;28;1995;-46
2022/11/25 04:48:45;;;;;;;;;;;;;;;;;;5006494;28;2050;-46
2022/11/25 04:51:13;;;;;;;;;;;;;;;;;;5006741;28;2077;-47
2022/11/25 04:53:42;;;;;;;;;;;;;;;;;;5006477;28;2022;-46
2022/11/25 04:56:15;;;;;;;;;;;;;;;;;;5006666;28;2004;-43
2022/11/25 05:01:30;;;;;;;;;;;;;;;;;;5007636;28;2017;-44
2022/11/25 05:04:08;;;;;;;;;;;;;;;;;;4994031;28;2249;-44
2022/11/25 05:06:38;;;;;;;;;;;;;;;;;;5010013;28;2064;-44
2022/11/25 05:09:06;;;;;;;;;;;;;;;;;;5010295;28;2210;-47
2022/11/25 05:11:36;;;;;;;;;;;;;;;;;;5010029;28;1847;-44
2022/11/25 05:14:03;;;;;;;;;;;;;;;;;;5010514;28;2070;-45
2022/11/25 05:16:32;;;;;;;;;;;;;;;;;;5010113;28;2019;-44
2022/11/25 05:19:01;;;;;;;;;;;;;;;;;;5023513;28;2589;-43
2022/11/25 05:21:28;;;;;;;;;;;;;;;;;;5014024;28;2054;-43
2022/11/25 05:23:55;;;;;;;;;;;;;;;;;;5014234;28;2101;-42
2022/11/25 05:26:26;;;;;;;;;;;;;;;;;;5029735;28;2082;-44
2022/11/25 05:28:56;;;;;;;;;;;;;;;;;;5011998;28;1849;-45
2022/11/25 05:31:23;;;;;;;;;;;;;;;;;;4994789;28;1873;-46
2022/11/25 05:33:51;;;;;;;;;;;;;;;;;;5009475;28;1855;-46
2022/11/25 05:36:20;;;;;;;;;;;;;;;;;;5009740;28;1899;-46
2022/11/25 05:38:48;;;;;;;;;;;;;;;;;;5008752;28;1819;-49
2022/11/25 05:41:22;;;;;;;;;;;;;;;;;;4994056;28;2038;-43
2022/11/25 05:43:51;;;;;;;;;;;;;;;;;;5009621;28;1963;-44
2022/11/25 05:46:19;;;;;;;;;;;;;;;;;;4994166;28;2080;-45
2022/11/25 05:48:54;;;;;;;;;;;;;;;;;;4994470;28;2015;-44
2022/11/25 05:51:22;;;;;;;;;;;;;;;;;;5009360;28;2144;-45
2022/11/25 05:53:51;;;;;;;;;;;;;;;;;;5009386;28;2167;-44
2022/11/25 05:56:20;;;;;;;;;;;;;;;;;;5009291;28;1941;-44
2022/11/25 05:59:14;;;;;;;;;;;;;;;;;;4993179;28;2028;-46
2022/11/25 06:01:54;;;;;;;;;;;;;;;;;;5009028;28;1910;-44
2022/11/25 06:04:22;;;;;;;;;;;;;;;;;;4994199;28;1945;-44
2022/11/25 06:06:49;;;;;;;;;;;;;;;;;;5009094;28;2011;-45
2022/11/25 06:09:16;;;;;;;;;;;;;;;;;;4998515;28;4103;-45
2022/11/25 06:11:43;;;;;;;;;;;;;;;;;;5008634;28;1959;-43
2022/11/25 06:14:10;;;;;;;;;;;;;;;;;;5008696;28;2121;-44
2022/11/25 06:16:39;;;;;;;;;;;;;;;;;;5008789;28;2019;-43
2022/11/25 06:19:22;;;;;;;;;;;;;;;;;;5025056;28;1973;-43
2022/11/25 06:21:49;;;;;;;;;;;;;;;;;;5012935;28;2101;-45
2022/11/25 06:24:17;;;;;;;;;;;;;;;;;;5011757;28;2113;-49
2022/11/25 06:26:46;;;;;;;;;;;;;;;;;;5028282;28;2481;-43
2022/11/25 06:29:13;;;;;;;;;;;;;;;;;;5013058;28;1865;-43
2022/11/25 06:31:45;;;;;;;;;;;;;;;;;;5011502;28;2010;-45
2022/11/25 06:34:29;;;;;;;;;;;;;;;;;;5024862;28;1980;-43
2022/11/25 06:36:56;;;;;;;;;;;;;;;;;;5028087;28;1965;-44
2022/11/25 06:39:23;;;;;;;;;;;;;;;;;;5028311;28;2071;-43
2022/11/25 06:41:50;;;;;;;;;;;;;;;;;;5012955;28;2112;-44
2022/11/25 06:44:17;;;;;;;;;;;;;;;;;;5012524;28;2052;-45
2022/11/25 06:46:44;;;;;;;;;;;;;;;;;;5012718;28;1866;-46
2022/11/25 06:49:11;;;;;;;;;;;;;;;;;;5012734;28;2157;-46
2022/11/25 06:51:39;;;;;;;;;;;;;;;;;;5012885;28;1941;-46
2022/11/25 06:54:07;;;;;;;;;;;;;;;;;;5012545;28;2007;-46
2022/11/25 06:56:34;;;;;;;;;;;;;;;;;;5012675;28;1707;-43
2022/11/25 06:59:02;;;;;;;;;;;;;;;;;;5012657;28;1854;-43
2022/11/25 07:01:29;;;;;;;;;;;;;;;;;;5027501;28;2016;-47
2022/11/25 07:04:02;;;;;;;;;;;;;;;;;;5012657;28;2044;-44
2022/11/25 07:06:30;;;;;;;;;;;;;;;;;;5012710;28;2168;-44
2022/11/25 07:08:57;;;;;;;;;;;;;;;;;;5010218;28;2073;-47
2022/11/25 07:11:28;;;;;;;;;;;;;;;;;;4992796;28;2127;-44
2022/11/25 07:13:57;;;;;;;;;;;;;;;;;;4992483;28;1811;-45
2022/11/25 07:16:24;;;;;;;;;;;;;;;;;;4992688;28;1729;-45
2022/11/25 07:18:54;;;;;;;;;;;;;;;;;;5005036;28;2036;-44
2022/11/25 07:21:22;;;;;;;;;;;;;;;;;;5012220;28;1973;-46
2022/11/25 07:23:50;;;;;;;;;;;;;;;;;;5011600;28;2121;-44
2022/11/25 07:26:22;;;;;;;;;;;;;;;;;;5011489;28;1993;-44
2022/11/25 07:28:52;;;;;;;;;;;;;;;;;;5011836;28;1875;-45
2022/11/25 07:31:21;;;;;;;;;;;;;;;;;;5012172;28;1944;-46
2022/11/25 07:33:51;;;;;;;;;;;;;;;;;;5011651;28;1883;-45
2022/11/25 07:36:19;;;;;;;;;;;;;;;;;;5011747;28;2066;-43
2022/11/25 07:38:46;;;;;;;;;;;;;;;;;;5011712;28;1964;-45
2022/11/25 07:41:14;;;;;;;;;;;;;;;;;;5011773;28;2079;-44
2022/11/25 07:43:49;;;;;;;;;;;;;;;;;;5011904;28;2093;-43
2022/11/25 07:46:24;;;;;;;;;;;;;;;;;;5026759;28;2209;-47
2022/11/25 07:48:57;;;;;;;;;;;;;;;;;;5011763;28;1887;-44
2022/11/25 07:51:46;;;;;;;;;;;;;;;;;;5010882;28;1982;-44
2022/11/25 07:54:13;;;;;;;;;;;;;;;;;;5011815;28;2061;-43
2022/11/25 07:56:41;;;;;;;;;;;;;;;;;;5012106;28;2158;-45
2022/11/25 07:59:10;;;;;;;;;;;;;;;;;;5011615;28;2097;-45
2022/11/25 08:01:37;;;;;;;;;;;;;;;;;;5011105;28;1929;-46
2022/11/25 08:04:06;;;;;;;;;;;;;;;;;;5011525;28;1926;-44
2022/11/25 08:06:36;;;;;;;;;;;;;;;;;;5011656;28;1846;-45
2022/11/25 08:09:04;;;;;;;;;;;;;;;;;;5011598;28;1997;-46
2022/11/25 08:11:31;;;;;;;;;;;;;;;;;;5011384;28;1870;-44
2022/11/25 08:13:59;;;;;;;;;;;;;;;;;;5011437;28;2022;-43
2022/11/25 08:16:27;;;;;;;;;;;;;;;;;;5011365;28;1973;-43
2022/11/25 08:18:54;;;;;;;;;;;;;;;;;;4999042;28;2058;-42
2022/11/25 08:21:22;;;;;;;;;;;;;;;;;;4991651;28;1974;-43
2022/11/25 08:23:51;;;;;;;;;;;;;;;;;;4991752;28;1811;-45
2022/11/25 08:26:21;;;;;;;;;;;;;;;;;;4991769;28;1771;-47
2022/11/25 08:28:48;;;;;;;;;;;;;;;;;;4991580;28;2176;-44
2022/11/25 08:31:18;;;;;;;;;;;;;;;;;;4992016;28;2178;-45
2022/11/25 08:33:45;;;;;;;;;;;;;;;;;;4991226;28;1908;-46
2022/11/25 08:36:12;;;;;;;;;;;;;;;;;;4993895;28;2042;-43
2022/11/25 08:38:40;;;;;;;;;;;;;;;;;;5010607;28;1920;-45
2022/11/25 08:41:12;;;;;;;;;;;;;;;;;;4995523;28;1912;-45
2022/11/25 08:43:39;;;;;;;;;;;;;;;;;;4995387;28;2001;-44
2022/11/25 08:46:07;;;;;;;;;;;;;;;;;;4995205;28;2005;-45
2022/11/25 08:48:35;;;;;;;;;;;;;;;;;;4995461;28;2072;-46
2022/11/25 08:51:06;;;;;;;;;;;;;;;;;;4995335;28;2274;-46
2022/11/25 08:53:33;;;;;;;;;;;;;;;;;;4995210;28;1900;-43
2022/11/25 08:56:00;;;;;;;;;;;;;;;;;;4995119;28;1914;-46
2022/11/25 08:58:28;;;;;;;;;;;;;;;;;;4995378;28;1965;-47
2022/11/25 09:00:55;;;;;;;;;;;;;;;;;;4994799;28;1964;-44
2022/11/25 09:03:22;;;;;;;;;;;;;;;;;;4994871;28;2158;-42
2022/11/25 09:05:49;;;;;;;;;;;;;;;;;;4995036;28;1885;-43
2022/11/25 09:08:16;;;;;;;;;;;;;;;;;;4995269;28;2091;-43
2022/11/25 09:10:44;;;;;;;;;;;;;;;;;;4995068;28;1932;-46
2022/11/25 09:13:11;;;;;;;;;;;;;;;;;;4994902;28;1737;-44
2022/11/25 09:15:38;;;;;;;;;;;;;;;;;;4994846;28;1962;-47
2022/11/25 09:18:10;;;;;;;;;;;;;;;;;;5000631;28;2036;-43
2022/11/25 09:20:39;;;;;;;;;;;;;;;;;;5014188;28;2190;-47
2022/11/25 09:23:07;;;;;;;;;;;;;;;;;;5014219;28;1943;-43
2022/11/25 09:25:35;;;;;;;;;;;;;;;;;;5014383;28;2246;-46
2022/11/25 09:28:02;;;;;;;;;;;;;;;;;;5014268;28;2026;-45
2022/11/25 09:30:30;;;;;;;;;;;;;;;;;;5014237;28;1981;-51
2022/11/25 09:32:57;;;;;;;;;;;;;;;;;;5013832;28;1936;-44
2022/11/25 09:35:24;;;;;;;;;;;;;;;;;;5014184;28;2050;-47
2022/11/25 09:37:51;;;;;;;;;;;;;;;;;;5013785;28;2062;-44
2022/11/25 09:40:22;;;;;;;;;;;;;;;;;;5014267;28;2080;-44
2022/11/25 09:48:56;;;;;;;;;;;;;;;;;;5013188;28;1974;-46
2022/11/25 09:51:33;;;;;;;;;;;;;;;;;;5013984;28;2337;-43
2022/11/25 09:54:13;;;;;;;;;;;;;;;;;;5013840;28;1773;-45
2022/11/25 09:56:41;;;;;;;;;;;;;;;;;;5013832;28;1854;-44
2022/11/25 09:59:17;;;;;;;;;;;;;;;;;;5013671;28;1793;-45
2022/11/25 10:02:04;;;;;;;;;;;;;;;;;;5028831;28;2234;-45
2022/11/25 10:04:39;;;;;;;;;;;;;;;;;;5009726;28;1962;-44
2022/11/25 10:07:09;;;;;;;;;;;;;;;;;;5013856;28;2236;-44
2022/11/25 10:09:36;;;;;;;;;;;;;;;;;;5013532;28;1887;-46
2022/11/25 10:12:06;;;;;;;;;;;;;;;;;;5013571;28;2041;-45
2022/11/25 10:14:42;;;;;;;;;;;;;;;;;;5013415;28;1939;-43
2022/11/25 10:17:09;;;;;;;;;;;;;;;;;;5013289;28;1966;-47
2022/11/25 10:19:39;;;;;;;;;;;;;;;;;;4995089;28;2013;-43
2022/11/25 10:22:15;;;;;;;;;;;;;;;;;;4993528;28;2084;-44
2022/11/25 10:24:42;;;;;;;;;;;;;;;;;;4993668;28;1829;-44
2022/11/25 10:27:14;;;;;;;;;;;;;;;;;;4993546;28;1872;-44
2022/11/25 10:29:41;;;;;;;;;;;;;;;;;;4993530;28;1859;-49
2022/11/25 10:32:30;;;;;;;;;;;;;;;;;;4993216;28;2231;-45
2022/11/25 10:34:59;;;;;;;;;;;;;;;;;;4993433;28;1938;-44
2022/11/25 10:37:29;;;;;;;;;;;;;;;;;;4993393;28;1928;-48
2022/11/25 10:39:56;;;;;;;;;;;;;;;;;;4993166;28;1896;-49
2022/11/25 10:42:25;;;;;;;;;;;;;;;;;;4993343;28;2065;-47
2022/11/25 10:44:53;;;;;;;;;;;;;;;;;;4993597;28;2049;-44
2022/11/25 10:47:41;;;;;;;;;;;;;;;;;;4993680;28;1984;-45
2022/11/25 10:50:20;;;;;;;;;;;;;;;;;;4993022;28;1897;-44
2022/11/25 10:52:50;;;;;;;;;;;;;;;;;;4993067;28;2007;-46
2022/11/25 10:55:19;;;;;;;;;;;;;;;;;;4993431;28;1986;-45
2022/11/25 10:57:46;;;;;;;;;;;;;;;;;;4993136;28;2114;-49
2022/11/25 11:00:24;;;;;;;;;;;;;;;;;;4992195;28;1899;-44
2022/11/25 11:02:51;;;;;;;;;;;;;;;;;;4993012;28;1950;-46
2022/11/25 11:05:21;;;;;;;;;;;;;;;;;;4992785;28;2009;-46
2022/11/25 11:08:05;;;;;;;;;;;;;;;;;;4993011;28;1877;-44
2022/11/25 11:10:32;;;;;;;;;;;;;;;;;;4992930;28;2342;-43
2022/11/25 11:13:01;;;;;;;;;;;;;;;;;;4992320;28;2015;-45
2022/11/25 11:15:28;;;;;;;;;;;;;;;;;;4992691;28;1826;-46
2022/11/25 11:17:56;;;;;;;;;;;;;;;;;;4997289;28;1777;-47
2022/11/25 11:20:25;;;;;;;;;;;;;;;;;;5012627;28;1864;-44
2022/11/25 11:22:58;;;;;;;;;;;;;;;;;;4997148;28;1914;-45
2022/11/25 11:25:31;;;;;;;;;;;;;;;;;;4992285;28;2076;-44
2022/11/25 11:27:59;;;;;;;;;;;;;;;;;;4992393;28;1960;-44
2022/11/25 11:30:30;;;;;;;;;;;;;;;;;;4992488;28;2201;-46
2022/11/25 11:32:59;;;;;;;;;;;;;;;;;;4992705;28;1871;-44
2022/11/25 11:35:27;;;;;;;;;;;;;;;;;;4992556;28;1969;-44
2022/11/25 11:37:58;;;;;;;;;;;;;;;;;;4992630;28;1887;-45
2022/11/25 11:40:25;;;;;;;;;;;;;;;;;;4992371;28;1930;-44
2022/11/25 11:43:10;;;;;;;;;;;;;;;;;;4992072;28;2118;-47
2022/11/25 11:45:37;;;;;;;;;;;;;;;;;;4992247;28;2283;-46
2022/11/25 11:48:10;;;;;;;;;;;;;;;;;;4992399;28;1894;-45
2022/11/25 11:50:44;;;;;;;;;;;;;;;;;;4992271;28;1956;-44
2022/11/25 11:53:11;;;;;;;;;;;;;;;;;;4991977;28;1859;-43
2022/11/25 11:55:38;;;;;;;;;;;;;;;;;;4992044;28;1849;-50
2022/11/25 11:58:11;;;;;;;;;;;;;;;;;;4992005;28;2187;-44
2022/11/25 12:00:47;;;;;;;;;;;;;;;;;;4992115;28;2260;-46
2022/11/25 12:03:17;;;;;;;;;;;;;;;;;;5006872;28;1958;-45
2022/11/25 12:05:45;;;;;;;;;;;;;;;;;;4991925;28;1841;-43
2022/11/25 12:08:12;;;;;;;;;;;;;;;;;;4991879;28;2086;-44
2022/11/25 12:10:42;;;;;;;;;;;;;;;;;;4991473;28;1947;-44
2022/11/25 12:13:16;;;;;;;;;;;;;;;;;;4991759;28;1896;-44
2022/11/25 12:15:43;;;;;;;;;;;;;;;;;;4992317;28;1883;-45
2022/11/25 12:18:30;;;;;;;;;;;;;;;;;;4998014;28;1753;-45
2022/11/25 12:21:01;;;;;;;;;;;;;;;;;;5007941;28;2061;-44
2022/11/25 12:23:53;;;;;;;;;;;;;;;;;;5011230;28;2023;-46
2022/11/25 12:26:28;;;;;;;;;;;;;;;;;;5011310;28;2008;-45
2022/11/25 12:29:01;;;;;;;;;;;;;;;;;;5011300;28;2069;-46
2022/11/25 12:31:31;;;;;;;;;;;;;;;;;;5011574;28;1993;-44
2022/11/25 12:34:18;;;;;;;;;;;;;;;;;;5011416;28;2182;-45
2022/11/25 12:36:46;;;;;;;;;;;;;;;;;;5026062;28;1874;-45
2022/11/25 12:39:33;;;;;;;;;;;;;;;;;;5011261;28;2007;-43
2022/11/25 12:42:01;;;;;;;;;;;;;;;;;;5011315;28;2169;-46
2022/11/25 12:44:48;;;;;;;;;;;;;;;;;;5011468;28;2095;-44
2022/11/25 12:47:15;;;;;;;;;;;;;;;;;;5010846;28;1919;-46
2022/11/25 12:49:44;;;;;;;;;;;;;;;;;;5011083;28;1961;-46
2022/11/25 12:52:17;;;;;;;;;;;;;;;;;;5011067;28;1994;-46
2022/11/25 12:54:56;;;;;;;;;;;;;;;;;;5011185;28;2133;-46
2022/11/25 12:57:47;;;;;;;;;;;;;;;;;;5011209;28;2044;-45
2022/11/25 13:00:19;;;;;;;;;;;;;;;;;;5010954;28;1954;-47
2022/11/25 13:03:25;;;;;;;;;;;;;;;;;;5010695;28;2027;-44
2022/11/25 13:06:03;;;;;;;;;;;;;;;;;;5010630;28;2052;-45
2022/11/25 13:08:38;;;;;;;;;;;;;;;;;;5011111;28;1934;-47
2022/11/25 13:11:32;;;;;;;;;;;;;;;;;;5010908;28;2023;-46
2022/11/25 13:14:11;;;;;;;;;;;;;;;;;;5003021;28;2020;-45
2022/11/25 13:16:39;;;;;;;;;;;;;;;;;;5010431;28;2038;-46
2022/11/25 13:19:11;;;;;;;;;;;;;;;;;;4996813;28;2047;-46
2022/11/25 13:21:56;;;;;;;;;;;;;;;;;;4990863;28;1949;-44
2022/11/25 13:24:36;;;;;;;;;;;;;;;;;;4994714;28;1951;-44
2022/11/25 13:27:04;;;;;;;;;;;;;;;;;;4994682;28;2125;-44
2022/11/25 13:29:34;;;;;;;;;;;;;;;;;;4994880;28;1912;-44
2022/11/25 13:32:04;;;;;;;;;;;;;;;;;;4994795;28;1990;-45
2022/11/25 13:34:34;;;;;;;;;;;;;;;;;;4995074;28;1869;-47
2022/11/25 13:37:22;;;;;;;;;;;;;;;;;;4994828;28;1878;-43
2022/11/25 13:40:09;;;;;;;;;;;;;;;;;;4994154;28;1944;-45
2022/11/25 13:42:42;;;;;;;;;;;;;;;;;;4994517;28;1912;-43
2022/11/25 13:45:23;;;;;;;;;;;;;;;;;;4994462;28;2068;-44
2022/11/25 13:47:51;;;;;;;;;;;;;;;;;;4994427;28;2350;-45
2022/11/25 13:50:22;;;;;;;;;;;;;;;;;;4994484;28;1930;-44
2022/11/25 13:52:59;;;;;;;;;;;;;;;;;;4994116;28;1981;-45
2022/11/25 13:55:29;;;;;;;;;;;;;;;;;;4994027;28;2240;-44
2022/11/25 13:58:09;;;;;;;;;;;;;;;;;;4994025;28;2040;-44
2022/11/25 14:00:36;;;;;;;;;;;;;;;;;;4994279;28;1710;-44
2022/11/25 14:03:29;;;;;;;;;;;;;;;;;;4993960;28;2207;-45
2022/11/25 14:06:15;;;;;;;;;;;;;;;;;;4993101;28;1854;-45
2022/11/25 14:09:01;;;;;;;;;;;;;;;;;;4993726;28;2016;-44
2022/11/25 14:11:28;;;;;;;;;;;;;;;;;;4993768;28;1757;-44
2022/11/25 14:14:18;;;;;;;;;;;;;;;;;;5008577;28;2090;-44
2022/11/25 14:17:05;;;;;;;;;;;;;;;;;;4983682;28;2101;-44
2022/11/25 14:19:50;;;;;;;;;;;;;;;;;;5010921;28;1711;-43
2022/11/25 14:22:27;;;;;;;;;;;;;;;;;;5013312;28;1979;-43
2022/11/25 14:24:59;;;;;;;;;;;;;;;;;;5013045;28;2213;-46
2022/11/25 14:27:27;;;;;;;;;;;;;;;;;;5013098;28;1892;-43
2022/11/25 14:29:59;;;;;;;;;;;;;;;;;;5013366;28;1881;-44
2022/11/25 14:32:35;;;;;;;;;;;;;;;;;;5013218;28;2107;-43
2022/11/25 14:35:29;;;;;;;;;;;;;;;;;;5012970;28;1990;-44
2022/11/25 14:38:00;;;;;;;;;;;;;;;;;;5012769;28;2034;-44
2022/11/25 14:40:45;;;;;;;;;;;;;;;;;;5013159;28;1967;-43
2022/11/25 14:43:25;;;;;;;;;;;;;;;;;;5012752;28;1898;-48
2022/11/25 14:46:14;;;;;;;;;;;;;;;;;;5012759;28;1955;-43
2022/11/25 14:48:42;;;;;;;;;;;;;;;;;;5012952;28;1950;-44
2022/11/25 14:51:10;;;;;;;;;;;;;;;;;;5012878;28;1795;-43
2022/11/25 14:53:41;;;;;;;;;;;;;;;;;;5012748;28;1933;-44
2022/11/25 14:56:14;;;;;;;;;;;;;;;;;;5012404;28;1854;-43
2022/11/25 14:58:45;;;;;;;;;;;;;;;;;;5012586;28;1871;-44
2022/11/25 15:01:17;;;;;;;;;;;;;;;;;;4996596;28;1877;-43
2022/11/25 15:03:48;;;;;;;;;;;;;;;;;;4992982;28;1914;-44
2022/11/25 15:06:18;;;;;;;;;;;;;;;;;;4992962;28;1978;-43
2022/11/25 15:08:53;;;;;;;;;;;;;;;;;;4992928;28;1875;-46
2022/11/25 15:11:23;;;;;;;;;;;;;;;;;;4992656;28;1884;-44
2022/11/25 15:13:57;;;;;;;;;;;;;;;;;;4992802;28;1960;-43
2022/11/25 15:16:32;;;;;;;;;;;;;;;;;;4992419;28;2028;-43
2022/11/25 15:19:01;;;;;;;;;;;;;;;;;;4992707;28;2009;-44
2022/11/25 15:21:28;;;;;;;;;;;;;;;;;;4992519;28;2095;-45
2022/11/25 15:23:55;;;;;;;;;;;;;;;;;;4992305;28;1976;-42
2022/11/25 15:26:23;;;;;;;;;;;;;;;;;;4992570;28;1849;-47
2022/11/25 15:28:55;;;;;;;;;;;;;;;;;;4992463;28;2001;-45
2022/11/25 15:31:25;;;;;;;;;;;;;;;;;;4992578;28;1918;-46
2022/11/25 15:33:53;;;;;;;;;;;;;;;;;;5011849;28;1972;-46
2022/11/25 15:36:21;;;;;;;;;;;;;;;;;;5011942;28;2069;-42
2022/11/25 15:38:49;;;;;;;;;;;;;;;;;;5011862;28;1852;-46
2022/11/25 15:41:16;;;;;;;;;;;;;;;;;;5012089;28;1913;-44
2022/11/25 15:43:45;;;;;;;;;;;;;;;;;;5012011;28;1912;-47
2022/11/25 15:46:12;;;;;;;;;;;;;;;;;;5011525;28;1987;-43
2022/11/25 15:48:46;;;;;;;;;;;;;;;;;;5011686;28;1895;-45
2022/11/25 15:51:34;;;;;;;;;;;;;;;;;;5011938;28;2246;-55
2022/11/25 15:54:06;;;;;;;;;;;;;;;;;;5011632;28;1768;-45
2022/11/25 15:56:36;;;;;;;;;;;;;;;;;;5011505;28;2149;-47
2022/11/25 15:59:03;;;;;;;;;;;;;;;;;;5011500;28;2094;-45
2022/11/25 16:01:30;;;;;;;;;;;;;;;;;;5011593;28;2012;-43
2022/11/25 16:04:15;;;;;;;;;;;;;;;;;;5011436;28;1965;-44
2022/11/25 16:06:52;;;;;;;;;;;;;;;;;;5011538;28;1834;-44
2022/11/25 16:09:21;;;;;;;;;;;;;;;;;;5011262;28;1879;-45
2022/11/25 16:11:48;;;;;;;;;;;;;;;;;;5011574;28;1967;-44
2022/11/25 16:14:16;;;;;;;;;;;;;;;;;;5026823;28;2017;-44
2022/11/25 16:16:43;;;;;;;;;;;;;;;;;;5011437;28;1972;-44
2022/11/25 16:19:13;;;;;;;;;;;;;;;;;;4997000;28;1896;-44
2022/11/25 16:21:40;;;;;;;;;;;;;;;;;;4991771;28;1629;-44
2022/11/25 16:24:07;;;;;;;;;;;;;;;;;;4991522;28;1990;-43
2022/11/25 16:26:53;;;;;;;;;;;;;;;;;;4992010;28;1845;-44
2022/11/25 16:29:23;;;;;;;;;;;;;;;;;;4991729;28;2025;-46
2022/11/25 16:31:51;;;;;;;;;;;;;;;;;;4991749;28;1897;-44
2022/11/25 16:34:19;;;;;;;;;;;;;;;;;;4991699;28;1983;-47
2022/11/25 16:36:46;;;;;;;;;;;;;;;;;;4991998;28;2176;-44
2022/11/25 16:39:13;;;;;;;;;;;;;;;;;;4991878;28;1815;-44
2022/11/25 16:41:41;;;;;;;;;;;;;;;;;;4991691;28;2028;-46
2022/11/25 16:44:27;;;;;;;;;;;;;;;;;;4991840;28;1965;-44
2022/11/25 16:46:54;;;;;;;;;;;;;;;;;;4991453;28;2048;-45
2022/11/25 16:49:21;;;;;;;;;;;;;;;;;;4991559;28;1890;-48
2022/11/25 16:51:52;;;;;;;;;;;;;;;;;;4991280;28;2052;-47
2022/11/25 16:54:20;;;;;;;;;;;;;;;;;;4991607;28;2033;-49
2022/11/25 16:56:53;;;;;;;;;;;;;;;;;;5007960;28;1982;-44
2022/11/25 16:59:30;;;;;;;;;;;;;;;;;;4994995;28;1947;-44
2022/11/25 17:01:59;;;;;;;;;;;;;;;;;;5010009;28;1919;-46
2022/11/25 17:04:27;;;;;;;;;;;;;;;;;;4995177;28;2063;-46
2022/11/25 17:06:55;;;;;;;;;;;;;;;;;;4995099;28;2091;-45
2022/11/25 17:09:43;;;;;;;;;;;;;;;;;;4995203;28;1017;-45
2022/11/25 17:12:23;;;;;;;;;;;;;;;;;;4994153;28;1913;-45
2022/11/25 17:14:50;;;;;;;;;;;;;;;;;;4994853;28;2056;-43
2022/11/25 17:17:22;;;;;;;;;;;;;;;;;;4995245;28;2066;-45
2022/11/25 17:19:50;;;;;;;;;;;;;;;;;;4975409;28;1962;-45
2022/11/25 17:22:19;;;;;;;;;;;;;;;;;;4975613;28;2032;-45
2022/11/25 17:24:46;;;;;;;;;;;;;;;;;;4975515;28;2035;-44
2022/11/25 17:27:16;;;;;;;;;;;;;;;;;;4975504;28;2052;-45
2022/11/25 17:29:45;;;;;;;;;;;;;;;;;;4975902;28;1999;-45
2022/11/25 17:32:14;;;;;;;;;;;;;;;;;;4975286;28;2038;-44
2022/11/25 17:34:41;;;;;;;;;;;;;;;;;;4974995;28;1415;-45
2022/11/25 17:37:15;;;;;;;;;;;;;;;;;;4975291;28;2085;-46
2022/11/25 17:39:42;;;;;;;;;;;;;;;;;;4975351;28;1946;-47
2022/11/25 17:42:11;;;;;;;;;;;;;;;;;;4974951;28;2098;-45
2022/11/25 17:44:39;;;;;;;;;;;;;;;;;;4978795;28;2051;-44